Terminal Aerodrome Forecast
Issued by NWS Duluth, MN

Home | Current Version | Previous Version | Text Only | Print | Product List | Glossary On
Versions: 1 2 3 4 5 6 7 8 9 10 11 12 13 14 15 16 17 18 19 20 21 22 23 24 25 26 27 28
000
FTUS43 KDLH 271100
TAFINL
TAF
KINL 271130Z 2712/2812 VRB03KT P6SM SCT050
      TEMPO 2712/2714 6SM BR SCT015 BKN050
     FM271500 26005KT P6SM FEW040
      TEMPO 2718/2721 BKN040
     FM280000 VRB03KT P6SM FEW050=

USA.gov is the U.S. government's official web portal to all federal, state and local government web resources and services.